Time;durP1;ratioP1;P1;durP2;ratioP2;P2;SDS_P1;SDS_P2;PMS_P1;PMS_P2;Temp;Humidity;BMP_temperature;BMP_pressure;BME280_temperature;BME280_humidity;BME280_pressure;Samples;Min_cycle;Max_cycle;Signal;HPM_P1;HPM_P2
2021/08/29 00:00:11;;;;;;;1.37;1.20;;;;;;;;;;4538899;28;20112;-58
2021/08/29 00:02:21;;;;;;;2.58;1.48;;;;;;;;;;4539377;28;20557;-58
2021/08/29 00:04:32;;;;;;;1.87;1.37;;;;;;;;;;4538190;28;20057;-58
2021/08/29 00:06:42;;;;;;;3.00;1.50;;;;;;;;;;4538624;28;23278;-58
2021/08/29 00:08:53;;;;;;;1.73;1.37;;;;;;;;;;4538343;28;20048;-58
2021/08/29 00:11:03;;;;;;;1.50;1.40;;;;;;;;;;4537596;28;36309;-58
2021/08/29 00:13:14;;;;;;;2.60;1.60;;;;;;;;;;4537371;28;20025;-58
2021/08/29 00:15:24;;;;;;;2.30;1.63;;;;;;;;;;4538507;28;20048;-58
2021/08/29 00:17:35;;;;;;;1.50;1.40;;;;;;;;;;4538130;28;20025;-58
2021/08/29 00:19:45;;;;;;;2.43;1.60;;;;;;;;;;4536893;28;20108;-58
2021/08/29 00:21:55;;;;;;;1.60;1.50;;;;;;;;;;4538587;28;20064;-58
2021/08/29 00:24:06;;;;;;;1.60;1.50;;;;;;;;;;4554277;28;23402;-58
2021/08/29 00:26:17;;;;;;;1.92;1.42;;;;;;;;;;4538135;28;20033;-58
2021/08/29 00:28:27;;;;;;;2.07;1.47;;;;;;;;;;4538760;28;20565;-58
2021/08/29 00:30:38;;;;;;;1.97;1.70;;;;;;;;;;4538210;28;20183;-58
2021/08/29 00:32:48;;;;;;;1.90;1.70;;;;;;;;;;4538418;28;20036;-58
2021/08/29 00:34:59;;;;;;;2.53;1.60;;;;;;;;;;4537278;28;20112;-58
2021/08/29 00:37:09;;;;;;;2.50;1.70;;;;;;;;;;4533171;28;20402;-58
2021/08/29 00:39:20;;;;;;;2.47;1.60;;;;;;;;;;4536446;28;20039;-58
2021/08/29 00:41:31;;;;;;;2.17;1.70;;;;;;;;;;4523219;28;20037;-58
2021/08/29 00:43:42;;;;;;;2.72;1.67;;;;;;;;;;4536753;28;20142;-58
2021/08/29 00:45:53;;;;;;;1.77;1.60;;;;;;;;;;4538263;28;20044;-58
2021/08/29 00:48:09;;;;;;;1.85;1.60;;;;;;;;;;4553079;28;20775;-58
2021/08/29 00:50:19;;;;;;;2.35;1.80;;;;;;;;;;4553341;28;20110;-58
2021/08/29 00:52:30;;;;;;;2.03;1.52;;;;;;;;;;4520527;28;20200;-58
2021/08/29 00:54:41;;;;;;;1.92;1.45;;;;;;;;;;4553736;28;20899;-58
2021/08/29 00:56:52;;;;;;;2.40;1.73;;;;;;;;;;4536642;28;20491;-58
2021/08/29 00:59:03;;;;;;;2.20;1.70;;;;;;;;;;4536413;28;20043;-58
2021/08/29 01:01:18;;;;;;;2.08;1.70;;;;;;;;;;4556082;28;20032;-58
2021/08/29 01:03:29;;;;;;;2.65;1.70;;;;;;;;;;4539581;28;20903;-58
2021/08/29 01:05:53;;;;;;;2.15;1.80;;;;;;;;;;4541104;28;20611;-58
2021/08/29 01:08:15;;;;;;;2.63;1.98;;;;;;;;;;4540015;28;20098;-58
2021/08/29 01:10:31;;;;;;;2.97;1.80;;;;;;;;;;4536415;28;20033;-58
2021/08/29 01:12:44;;;;;;;2.85;1.92;;;;;;;;;;4556702;28;20638;-58
2021/08/29 01:14:55;;;;;;;3.08;1.90;;;;;;;;;;4530124;28;20135;-58
2021/08/29 01:17:06;;;;;;;;;;;;;;;;;;4536030;28;20126;-58
2021/08/29 01:19:20;;;;;;;1.95;1.63;;;;;;;;;;4539904;28;20704;-58
2021/08/29 01:21:37;;;;;;;2.00;1.67;;;;;;;;;;4551133;28;20043;-57
2021/08/29 01:23:59;;;;;;;2.03;1.70;;;;;;;;;;4539708;28;20033;-58
2021/08/29 01:26:27;;;;;;;2.10;1.70;;;;;;;;;;4539539;28;20021;-58
2021/08/29 01:28:58;;;;;;;2.10;1.55;;;;;;;;;;4511864;28;20045;-58
2021/08/29 01:31:09;;;;;;;;;;;;;;;;;;4523890;28;21363;-58
2021/08/29 01:33:22;;;;;;;2.70;1.90;;;;;;;;;;4539669;28;19939;-58
2021/08/29 01:35:47;;;;;;;2.15;1.75;;;;;;;;;;4556323;28;20029;-58
2021/08/29 01:37:58;;;;;;;2.25;1.55;;;;;;;;;;4539484;28;20163;-57
2021/08/29 01:40:10;;;;;;;2.20;1.80;;;;;;;;;;4539131;28;20044;-58
2021/08/29 01:42:20;;;;;;;2.40;1.60;;;;;;;;;;4539558;28;20045;-58
2021/08/29 01:44:31;;;;;;;2.23;1.50;;;;;;;;;;4535303;28;20033;-58
2021/08/29 01:46:42;;;;;;;2.15;1.40;;;;;;;;;;4538738;28;20025;-58
2021/08/29 01:48:53;;;;;;;2.47;1.50;;;;;;;;;;4521264;28;20127;-58
2021/08/29 01:51:03;;;;;;;2.07;1.30;;;;;;;;;;4547803;28;20118;-58
2021/08/29 01:53:21;;;;;;;1.50;1.30;;;;;;;;;;4538486;28;20533;-58
2021/08/29 01:55:43;;;;;;;2.22;1.40;;;;;;;;;;4540013;28;20112;-58
2021/08/29 01:58:08;;;;;;;1.58;1.33;;;;;;;;;;4523551;28;20036;-58
2021/08/29 02:00:20;;;;;;;2.80;1.60;;;;;;;;;;4554949;28;20029;-57
2021/08/29 02:02:32;;;;;;;2.03;1.50;;;;;;;;;;4521703;28;20367;-57
2021/08/29 02:04:43;;;;;;;2.95;1.30;;;;;;;;;;4555063;28;20032;-58
2021/08/29 02:07:05;;;;;;;2.15;1.45;;;;;;;;;;4539028;28;21209;-58
2021/08/29 02:09:17;;;;;;;2.45;1.50;;;;;;;;;;4538230;28;20872;-57
2021/08/29 02:11:38;;;;;;;1.88;1.30;;;;;;;;;;4524719;28;20037;-58
2021/08/29 02:13:52;;;;;;;3.30;1.65;;;;;;;;;;4538247;28;20025;-58
2021/08/29 02:16:09;;;;;;;1.65;1.40;;;;;;;;;;4537975;28;20698;-59
2021/08/29 02:18:21;;;;;;;2.03;1.40;;;;;;;;;;4521021;28;20726;-58
2021/08/29 02:20:33;;;;;;;1.90;1.40;;;;;;;;;;4521077;28;20065;-59
2021/08/29 02:22:45;;;;;;;2.17;1.58;;;;;;;;;;4554391;28;20079;-58
2021/08/29 02:24:55;;;;;;;2.00;1.40;;;;;;;;;;4521455;28;20556;-58
2021/08/29 02:27:09;;;;;;;2.13;1.40;;;;;;;;;;4540086;28;20607;-58
2021/08/29 02:29:20;;;;;;;2.08;1.42;;;;;;;;;;4554804;28;20079;-58
2021/08/29 02:31:34;;;;;;;2.35;1.38;;;;;;;;;;4530161;28;20579;-58
2021/08/29 02:33:45;;;;;;;3.35;1.42;;;;;;;;;;4538155;28;20083;-58
2021/08/29 02:35:59;;;;;;;2.30;1.40;;;;;;;;;;4538197;28;20073;-58
2021/08/29 02:38:14;;;;;;;2.03;1.33;;;;;;;;;;4521619;28;20124;-58
2021/08/29 02:40:26;;;;;;;1.65;1.35;;;;;;;;;;4537832;28;20602;-58
2021/08/29 02:42:40;;;;;;;2.65;1.60;;;;;;;;;;4538386;28;20037;-58
2021/08/29 02:44:55;;;;;;;1.73;1.50;;;;;;;;;;4536302;28;20029;-58
2021/08/29 02:47:05;;;;;;;1.50;1.27;;;;;;;;;;4521053;28;20076;-58
2021/08/29 02:49:21;;;;;;;1.92;1.48;;;;;;;;;;4538058;28;20045;-58
2021/08/29 02:51:32;;;;;;;2.53;1.60;;;;;;;;;;4538261;28;20504;-58
2021/08/29 02:53:43;;;;;;;2.25;1.55;;;;;;;;;;4538129;28;20035;-58
2021/08/29 02:55:59;;;;;;;2.60;1.60;;;;;;;;;;4538129;28;20029;-58
2021/08/29 02:58:13;;;;;;;2.40;1.50;;;;;;;;;;4538528;28;20070;-58
2021/08/29 03:00:44;;;;;;;1.88;1.38;;;;;;;;;;4551851;28;20037;-58
2021/08/29 03:03:04;;;;;;;2.17;1.65;;;;;;;;;;4548860;28;20044;-58
2021/08/29 03:05:16;;;;;;;2.90;1.58;;;;;;;;;;4521209;28;20044;-58
2021/08/29 03:07:27;;;;;;;3.38;1.60;;;;;;;;;;4554418;28;20480;-58
2021/08/29 03:09:38;;;;;;;3.03;1.60;;;;;;;;;;4538895;28;20037;-58
2021/08/29 03:11:48;;;;;;;2.17;1.43;;;;;;;;;;4554423;28;20493;-59
2021/08/29 03:14:19;;;;;;;2.08;1.38;;;;;;;;;;4537401;28;20052;-58
2021/08/29 03:16:31;;;;;;;3.43;1.80;;;;;;;;;;4518423;28;20032;-58
2021/08/29 03:18:52;;;;;;;2.42;1.60;;;;;;;;;;4537490;28;20025;-58
2021/08/29 03:21:32;;;;;;;2.80;1.60;;;;;;;;;;4541631;28;20078;-58
2021/08/29 03:23:43;;;;;;;2.15;1.45;;;;;;;;;;4538202;28;20036;-58
2021/08/29 03:25:54;;;;;;;2.27;1.60;;;;;;;;;;4539012;28;20120;-59
2021/08/29 03:28:05;;;;;;;3.20;1.80;;;;;;;;;;4538837;28;20064;-58
2021/08/29 03:30:15;;;;;;;3.60;1.70;;;;;;;;;;4520278;28;20616;-58
2021/08/29 03:32:27;;;;;;;;;;;;;;;;;;4520698;28;20080;-59
2021/08/29 03:34:38;;;;;;;2.77;1.80;;;;;;;;;;4537170;28;19983;-59
2021/08/29 03:36:49;;;;;;;3.03;1.48;;;;;;;;;;4536872;28;20036;-59
2021/08/29 03:39:03;;;;;;;3.40;1.73;;;;;;;;;;4537261;28;20045;-59
2021/08/29 03:41:16;;;;;;;3.20;1.70;;;;;;;;;;4535100;28;20044;-59
2021/08/29 03:43:27;;;;;;;2.58;1.60;;;;;;;;;;4548254;28;20036;-58
2021/08/29 03:45:38;;;;;;;2.03;1.50;;;;;;;;;;4554106;28;20454;-59
2021/08/29 03:47:49;;;;;;;2.10;1.60;;;;;;;;;;4520404;28;20300;-58
2021/08/29 03:50:04;;;;;;;2.03;1.60;;;;;;;;;;4537191;28;20127;-58
2021/08/29 03:52:20;;;;;;;4.55;2.00;;;;;;;;;;4554423;28;20037;-58
2021/08/29 03:54:49;;;;;;;2.38;1.48;;;;;;;;;;4537092;28;20041;-58
2021/08/29 03:57:00;;;;;;;2.25;1.60;;;;;;;;;;4538628;28;20486;-58
2021/08/29 03:59:11;;;;;;;4.30;1.77;;;;;;;;;;4526335;28;20128;-58
2021/08/29 04:01:22;;;;;;;3.10;1.67;;;;;;;;;;4527849;28;20502;-59
2021/08/29 04:03:33;;;;;;;3.47;1.90;;;;;;;;;;4537442;28;20575;-58
2021/08/29 04:05:43;;;;;;;2.97;1.60;;;;;;;;;;4538996;28;20025;-59
2021/08/29 04:07:57;;;;;;;3.05;1.75;;;;;;;;;;4520806;28;20205;-58
2021/08/29 04:10:08;;;;;;;2.75;1.60;;;;;;;;;;4536290;28;20859;-58
2021/08/29 04:12:27;;;;;;;2.22;1.60;;;;;;;;;;4526684;28;20044;-58
2021/08/29 04:15:13;;;;;;;2.87;1.53;;;;;;;;;;4509817;28;20064;-58
2021/08/29 04:17:24;;;;;;;3.47;1.97;;;;;;;;;;4528495;28;20417;-58
2021/08/29 04:19:41;;;;;;;3.38;1.83;;;;;;;;;;4552709;28;20102;-58
2021/08/29 04:21:53;;;;;;;2.97;1.52;;;;;;;;;;4510984;28;20554;-58
2021/08/29 04:24:04;;;;;;;3.13;1.85;;;;;;;;;;4526979;28;20076;-58
2021/08/29 04:26:28;;;;;;;2.75;1.77;;;;;;;;;;4518491;28;20123;-59
2021/08/29 04:28:39;;;;;;;3.33;1.70;;;;;;;;;;4538391;28;21226;-58
2021/08/29 04:30:51;;;;;;;2.55;1.48;;;;;;;;;;4537137;28;20504;-58
2021/08/29 04:33:02;;;;;;;3.05;1.45;;;;;;;;;;4519730;28;20040;-58
2021/08/29 04:35:36;;;;;;;2.90;1.60;;;;;;;;;;4541825;28;20036;-58
2021/08/29 04:37:50;;;;;;;2.53;1.50;;;;;;;;;;4540094;28;20037;-58
2021/08/29 04:40:01;;;;;;;2.92;1.60;;;;;;;;;;4556028;28;20108;-58
2021/08/29 04:42:12;;;;;;;2.60;1.85;;;;;;;;;;4539979;28;20116;-59
2021/08/29 04:44:23;;;;;;;3.05;1.70;;;;;;;;;;4549230;28;20543;-58
2021/08/29 04:46:34;;;;;;;1.83;1.55;;;;;;;;;;4535883;28;20048;-58
2021/08/29 04:48:45;;;;;;;2.10;1.42;;;;;;;;;;4556809;28;20501;-59
2021/08/29 04:50:59;;;;;;;2.42;1.38;;;;;;;;;;4556237;28;20037;-59
2021/08/29 04:53:11;;;;;;;2.25;1.70;;;;;;;;;;4531119;28;20769;-58
2021/08/29 04:55:21;;;;;;;3.00;1.60;;;;;;;;;;4540173;28;20352;-59
2021/08/29 04:57:32;;;;;;;2.83;1.63;;;;;;;;;;4540969;28;20037;-59
2021/08/29 04:59:42;;;;;;;3.57;1.53;;;;;;;;;;4529873;28;20013;-59
2021/08/29 05:01:53;;;;;;;2.53;1.80;;;;;;;;;;4539518;28;31263;-58
2021/08/29 05:04:04;;;;;;;3.03;1.70;;;;;;;;;;4550749;28;20473;-58
2021/08/29 05:06:15;;;;;;;2.17;1.52;;;;;;;;;;4534885;28;20039;-58
2021/08/29 05:08:26;;;;;;;2.33;1.50;;;;;;;;;;4549743;28;20048;-58
2021/08/29 05:10:37;;;;;;;2.40;1.60;;;;;;;;;;4535117;28;20028;-58
2021/08/29 05:12:52;;;;;;;1.98;1.33;;;;;;;;;;4539361;28;20029;-58
2021/08/29 05:15:03;;;;;;;3.10;1.55;;;;;;;;;;4549510;28;20387;-58
2021/08/29 05:17:13;;;;;;;2.65;1.55;;;;;;;;;;4538995;28;20033;-58
2021/08/29 05:19:33;;;;;;;2.25;1.42;;;;;;;;;;4539518;28;20033;-58
2021/08/29 05:22:03;;;;;;;2.33;1.60;;;;;;;;;;4536627;28;20053;-58
2021/08/29 05:24:32;;;;;;;2.33;1.55;;;;;;;;;;4528474;28;20033;-58
2021/08/29 05:26:48;;;;;;;2.60;1.45;;;;;;;;;;4525742;28;20044;-58
2021/08/29 05:29:00;;;;;;;2.30;1.50;;;;;;;;;;4532153;28;20072;-58
2021/08/29 05:31:12;;;;;;;2.78;1.52;;;;;;;;;;4540709;28;20029;-59
2021/08/29 05:33:24;;;;;;;2.67;1.60;;;;;;;;;;4556820;28;20035;-59
2021/08/29 05:35:35;;;;;;;2.53;1.60;;;;;;;;;;4539044;28;20033;-58
2021/08/29 05:37:46;;;;;;;2.80;1.60;;;;;;;;;;4538801;28;20033;-58
2021/08/29 05:40:15;;;;;;;2.13;1.58;;;;;;;;;;4540620;28;20594;-58
2021/08/29 05:42:46;;;;;;;2.35;1.65;;;;;;;;;;4538767;28;20029;-58
2021/08/29 05:44:58;;;;;;;2.90;1.58;;;;;;;;;;4539181;28;20725;-59
2021/08/29 05:47:09;;;;;;;2.87;1.60;;;;;;;;;;4538682;28;20099;-59
2021/08/29 05:49:22;;;;;;;2.35;1.60;;;;;;;;;;4539052;28;20063;-58
2021/08/29 05:51:33;;;;;;;3.37;1.33;;;;;;;;;;4539143;28;20099;-58
2021/08/29 05:53:43;;;;;;;2.77;1.77;;;;;;;;;;4536810;28;20079;-58
2021/08/29 05:55:55;;;;;;;2.93;1.53;;;;;;;;;;4555992;28;20024;-58
2021/08/29 05:58:06;;;;;;;2.50;1.55;;;;;;;;;;4548898;28;20037;-58
2021/08/29 06:00:17;;;;;;;2.58;1.38;;;;;;;;;;4549279;28;20041;-58
2021/08/29 06:02:32;;;;;;;2.70;1.50;;;;;;;;;;4534500;28;20824;-58
2021/08/29 06:04:43;;;;;;;2.10;1.30;;;;;;;;;;4549623;28;20049;-58
2021/08/29 06:07:11;;;;;;;1.70;1.27;;;;;;;;;;4538376;28;20640;-57
2021/08/29 06:09:24;;;;;;;2.53;1.65;;;;;;;;;;4537557;28;20042;-58
2021/08/29 06:11:36;;;;;;;1.80;1.20;;;;;;;;;;4537792;28;20524;-58
2021/08/29 06:13:47;;;;;;;2.43;1.50;;;;;;;;;;4540416;28;20025;-58
2021/08/29 06:15:58;;;;;;;1.48;1.20;;;;;;;;;;4555181;28;20067;-58
2021/08/29 06:18:09;;;;;;;1.98;1.30;;;;;;;;;;4555280;28;20060;-58
2021/08/29 06:20:21;;;;;;;1.75;1.35;;;;;;;;;;4528809;28;20036;-58
2021/08/29 06:22:31;;;;;;;2.57;1.20;;;;;;;;;;4537861;28;20084;-58
2021/08/29 06:25:02;;;;;;;1.83;1.10;;;;;;;;;;4537486;28;20040;-58
2021/08/29 06:27:32;;;;;;;1.83;1.15;;;;;;;;;;4533989;28;20043;-58
2021/08/29 06:30:03;;;;;;;1.92;1.20;;;;;;;;;;4539176;28;20053;-58
2021/08/29 06:32:32;;;;;;;1.70;1.20;;;;;;;;;;4538653;28;20049;-58
2021/08/29 06:34:49;;;;;;;1.63;1.00;;;;;;;;;;4521676;28;20036;-58
2021/08/29 06:37:13;;;;;;;2.15;1.10;;;;;;;;;;4537699;28;20041;-58
2021/08/29 06:39:23;;;;;;;1.63;1.30;;;;;;;;;;4554838;28;20516;-58
2021/08/29 06:41:33;;;;;;;1.17;0.97;;;;;;;;;;4554522;28;20116;-58
2021/08/29 06:43:44;;;;;;;1.65;1.10;;;;;;;;;;4554477;28;20051;-58
2021/08/29 06:46:13;;;;;;;1.42;0.93;;;;;;;;;;4539417;28;20033;-58
2021/08/29 06:48:42;;;;;;;0.88;0.80;;;;;;;;;;4538419;28;20056;-58
2021/08/29 06:51:11;;;;;;;1.33;1.00;;;;;;;;;;4539193;28;20746;-58
2021/08/29 06:53:53;;;;;;;1.55;1.15;;;;;;;;;;4537580;28;20669;-58
2021/08/29 06:56:22;;;;;;;1.15;0.90;;;;;;;;;;4539278;28;20092;-58
2021/08/29 06:58:44;;;;;;;1.73;0.98;;;;;;;;;;4536685;28;20037;-58
2021/08/29 07:00:55;;;;;;;0.80;0.80;;;;;;;;;;4554628;28;20037;-58
2021/08/29 07:03:05;;;;;;;1.23;0.90;;;;;;;;;;4554951;28;20028;-58
2021/08/29 07:05:16;;;;;;;0.87;0.80;;;;;;;;;;4554481;28;20102;-58
2021/08/29 07:08:05;;;;;;;1.15;0.80;;;;;;;;;;4520385;28;20146;-58
2021/08/29 07:10:22;;;;;;;1.50;1.00;;;;;;;;;;4513408;28;20615;-57
2021/08/29 07:13:05;;;;;;;1.20;0.90;;;;;;;;;;4500210;28;20072;-58
2021/08/29 07:15:18;;;;;;;1.02;0.90;;;;;;;;;;4537392;28;20135;-58
2021/08/29 07:17:31;;;;;;;1.08;0.82;;;;;;;;;;4553632;28;20029;-58
2021/08/29 07:19:43;;;;;;;1.27;0.70;;;;;;;;;;4536676;28;20976;-58
2021/08/29 07:22:19;;;;;;;0.60;0.60;;;;;;;;;;4536588;28;20630;-58
2021/08/29 07:24:49;;;;;;;1.48;0.80;;;;;;;;;;4538606;28;20045;-58
2021/08/29 07:27:17;;;;;;;0.60;0.60;;;;;;;;;;4538910;28;20045;-58
2021/08/29 07:29:48;;;;;;;1.10;0.65;;;;;;;;;;4537372;28;20044;-58
2021/08/29 07:32:17;;;;;;;0.68;0.52;;;;;;;;;;4538130;28;20045;-58
2021/08/29 07:34:27;;;;;;;0.67;0.67;;;;;;;;;;4554133;28;20020;-58
2021/08/29 07:36:56;;;;;;;0.60;0.60;;;;;;;;;;4533005;28;21003;-58
2021/08/29 07:39:07;;;;;;;0.60;0.60;;;;;;;;;;4520258;28;20025;-57
2021/08/29 07:41:17;;;;;;;0.60;0.60;;;;;;;;;;4536686;28;20127;-57
2021/08/29 07:43:28;;;;;;;0.60;0.50;;;;;;;;;;4538281;28;20037;-57
2021/08/29 07:45:39;;;;;;;0.50;0.43;;;;;;;;;;4536202;28;20033;-57
2021/08/29 07:47:52;;;;;;;0.60;0.60;;;;;;;;;;4547460;28;20033;-57
2021/08/29 07:50:05;;;;;;;0.55;0.50;;;;;;;;;;4536861;28;20041;-58
2021/08/29 07:52:15;;;;;;;0.40;0.40;;;;;;;;;;4536337;28;20120;-57
2021/08/29 07:54:38;;;;;;;0.50;0.50;;;;;;;;;;4536595;28;20516;-58
2021/08/29 07:57:07;;;;;;;0.50;0.40;;;;;;;;;;4538331;28;20041;-57
2021/08/29 07:59:17;;;;;;;0.50;0.50;;;;;;;;;;4552835;28;20036;-57
2021/08/29 08:01:28;;;;;;;1.13;0.60;;;;;;;;;;4552325;28;20123;-57
2021/08/29 08:03:57;;;;;;;0.68;0.50;;;;;;;;;;4551330;28;20045;-57
2021/08/29 08:06:26;;;;;;;0.40;0.40;;;;;;;;;;4537244;28;20144;-57
2021/08/29 08:09:00;;;;;;;0.30;0.30;;;;;;;;;;4527427;28;20053;-58
2021/08/29 08:11:29;;;;;;;0.30;0.30;;;;;;;;;;4538310;28;20045;-58
2021/08/29 08:13:39;;;;;;;0.40;0.40;;;;;;;;;;4533807;28;20041;-58
2021/08/29 08:15:50;;;;;;;0.40;0.40;;;;;;;;;;4521902;28;20205;-58
2021/08/29 08:18:00;;;;;;;0.50;0.50;;;;;;;;;;4554160;28;20646;-58
2021/08/29 08:20:12;;;;;;;0.40;0.40;;;;;;;;;;4526399;28;20064;-58
2021/08/29 08:22:30;;;;;;;0.60;0.60;;;;;;;;;;4552727;28;20168;-58
2021/08/29 08:25:01;;;;;;;0.43;0.40;;;;;;;;;;4553140;28;20044;-58
2021/08/29 08:27:33;;;;;;;0.85;0.50;;;;;;;;;;4537853;28;20048;-58
2021/08/29 08:30:04;;;;;;;0.40;0.40;;;;;;;;;;4537227;28;20104;-57
2021/08/29 08:32:33;;;;;;;1.40;0.43;;;;;;;;;;4536605;28;20049;-58
2021/08/29 08:35:02;;;;;;;0.30;0.30;;;;;;;;;;4537880;28;20041;-58
2021/08/29 08:37:21;;;;;;;0.60;0.40;;;;;;;;;;4536553;28;20053;-58
2021/08/29 08:39:50;;;;;;;0.30;0.30;;;;;;;;;;4535133;28;20025;-57
2021/08/29 08:42:08;;;;;;;0.30;0.30;;;;;;;;;;4551915;28;20590;-58
2021/08/29 08:44:56;;;;;;;0.20;0.20;;;;;;;;;;4537596;28;21559;-58
2021/08/29 08:47:25;;;;;;;0.20;0.20;;;;;;;;;;4537595;28;20045;-58
2021/08/29 08:49:57;;;;;;;0.30;0.30;;;;;;;;;;4537084;28;20041;-58
2021/08/29 08:52:29;;;;;;;0.38;0.30;;;;;;;;;;4536733;28;20053;-58
2021/08/29 08:55:00;;;;;;;0.22;0.20;;;;;;;;;;4536376;28;20045;-58
2021/08/29 08:57:29;;;;;;;0.30;0.30;;;;;;;;;;4538119;28;20041;-58
2021/08/29 08:59:58;;;;;;;0.32;0.32;;;;;;;;;;4521946;28;20091;-58
2021/08/29 09:02:43;;;;;;;0.30;0.30;;;;;;;;;;4537208;28;20086;-58
2021/08/29 09:05:12;;;;;;;0.30;0.30;;;;;;;;;;4536367;28;20049;-58
2021/08/29 09:07:25;;;;;;;0.50;0.30;;;;;;;;;;4553146;28;20042;-58
2021/08/29 09:09:36;;;;;;;0.40;0.30;;;;;;;;;;4536225;28;20041;-58
2021/08/29 09:11:47;;;;;;;0.30;0.30;;;;;;;;;;4537597;28;20068;-58
2021/08/29 09:13:57;;;;;;;0.30;0.30;;;;;;;;;;4522460;28;20136;-58
2021/08/29 09:16:13;;;;;;;0.30;0.30;;;;;;;;;;4532356;28;20057;-58
2021/08/29 09:18:26;;;;;;;0.57;0.40;;;;;;;;;;4519005;28;20072;-58
2021/08/29 09:20:39;;;;;;;0.30;0.30;;;;;;;;;;4552971;28;20132;-56
2021/08/29 09:23:02;;;;;;;0.47;0.35;;;;;;;;;;4524276;28;20037;-58
2021/08/29 09:25:29;;;;;;;0.30;0.30;;;;;;;;;;4539917;28;20037;-58
2021/08/29 09:28:00;;;;;;;0.38;0.38;;;;;;;;;;4536683;28;20065;-56
2021/08/29 09:30:30;;;;;;;0.20;0.20;;;;;;;;;;4554939;28;20075;-56
2021/08/29 09:33:06;;;;;;;0.32;0.32;;;;;;;;;;4513824;28;20109;-57
2021/08/29 09:35:18;;;;;;;0.52;0.40;;;;;;;;;;4533987;28;20041;-56
2021/08/29 09:37:47;;;;;;;0.20;0.20;;;;;;;;;;4539598;28;20045;-57
2021/08/29 09:40:20;;;;;;;0.30;0.30;;;;;;;;;;4523464;28;20040;-57
2021/08/29 09:42:52;;;;;;;0.25;0.25;;;;;;;;;;4556267;28;20028;-57
2021/08/29 09:45:06;;;;;;;0.30;0.30;;;;;;;;;;4528631;28;20030;-57
2021/08/29 09:47:18;;;;;;;0.52;0.20;;;;;;;;;;4539737;28;20041;-59
2021/08/29 09:50:08;;;;;;;0.30;0.30;;;;;;;;;;4507530;28;20218;-58
2021/08/29 09:52:27;;;;;;;0.20;0.20;;;;;;;;;;4521011;28;20041;-59
2021/08/29 09:54:56;;;;;;;1.10;0.30;;;;;;;;;;4526473;28;20670;-57
2021/08/29 09:57:25;;;;;;;0.47;0.30;;;;;;;;;;4540763;28;20151;-56
2021/08/29 10:00:10;;;;;;;0.52;0.32;;;;;;;;;;4555106;28;20082;-57
2021/08/29 10:02:25;;;;;;;0.20;0.20;;;;;;;;;;4518889;28;20045;-57
2021/08/29 10:04:36;;;;;;;0.30;0.30;;;;;;;;;;4514959;28;20109;-56
2021/08/29 10:06:47;;;;;;;0.20;0.20;;;;;;;;;;4486783;28;20043;-56
2021/08/29 10:08:59;;;;;;;0.33;0.20;;;;;;;;;;4519612;28;20106;-56
2021/08/29 10:11:19;;;;;;;0.30;0.30;;;;;;;;;;4519792;28;20121;-55
2021/08/29 10:13:29;;;;;;;0.30;0.20;;;;;;;;;;4519174;28;21356;-56
2021/08/29 10:15:52;;;;;;;0.35;0.30;;;;;;;;;;4502672;28;20121;-56
2021/08/29 10:18:29;;;;;;;0.32;0.30;;;;;;;;;;4500057;28;20047;-56
2021/08/29 10:21:17;;;;;;;0.25;0.25;;;;;;;;;;4478469;28;20979;-55
2021/08/29 10:23:28;;;;;;;0.28;0.28;;;;;;;;;;4490536;28;20072;-55
2021/08/29 10:25:39;;;;;;;0.32;0.32;;;;;;;;;;4502469;28;20508;-56
2021/08/29 10:28:14;;;;;;;0.40;0.40;;;;;;;;;;4505494;28;20600;-56
2021/08/29 10:30:33;;;;;;;0.40;0.40;;;;;;;;;;4502258;28;20130;-55
2021/08/29 10:33:04;;;;;;;0.40;0.40;;;;;;;;;;4519115;28;20041;-55
2021/08/29 10:35:25;;;;;;;0.40;0.32;;;;;;;;;;4502426;28;20053;-55
2021/08/29 10:37:44;;;;;;;0.40;0.40;;;;;;;;;;4502202;28;20209;-55
2021/08/29 10:40:15;;;;;;;0.43;0.43;;;;;;;;;;4536368;28;20075;-56
2021/08/29 10:42:41;;;;;;;0.40;0.40;;;;;;;;;;4538236;28;20076;-55
2021/08/29 10:45:14;;;;;;;0.98;0.60;;;;;;;;;;4533006;28;20113;-55
2021/08/29 10:47:48;;;;;;;0.40;0.40;;;;;;;;;;4526584;28;20056;-55
2021/08/29 10:50:28;;;;;;;0.50;0.50;;;;;;;;;;4546215;28;20175;-56
2021/08/29 10:52:39;;;;;;;0.47;0.40;;;;;;;;;;4537857;28;20501;-55
2021/08/29 10:54:53;;;;;;;0.55;0.52;;;;;;;;;;4519977;28;20425;-55
2021/08/29 10:57:30;;;;;;;0.68;0.50;;;;;;;;;;4508849;28;20162;-56
2021/08/29 11:00:01;;;;;;;0.45;0.43;;;;;;;;;;4555140;28;21238;-56
2021/08/29 11:02:13;;;;;;;0.68;0.60;;;;;;;;;;4519202;28;20077;-56
2021/08/29 11:04:53;;;;;;;0.85;0.50;;;;;;;;;;4551369;28;20043;-56
2021/08/29 11:07:38;;;;;;;0.40;0.40;;;;;;;;;;4522913;28;20035;-56
2021/08/29 11:09:50;;;;;;;0.47;0.47;;;;;;;;;;4554587;28;21005;-56
2021/08/29 11:12:27;;;;;;;0.40;0.40;;;;;;;;;;4554253;28;20033;-56
2021/08/29 11:14:48;;;;;;;1.05;0.52;;;;;;;;;;4554297;28;20036;-56
2021/08/29 11:17:19;;;;;;;0.50;0.50;;;;;;;;;;4554753;28;20037;-56
2021/08/29 11:19:51;;;;;;;0.50;0.50;;;;;;;;;;4537060;28;20265;-55
2021/08/29 11:22:26;;;;;;;0.98;0.55;;;;;;;;;;4548010;28;20049;-56
2021/08/29 11:24:50;;;;;;;1.20;0.80;;;;;;;;;;4532036;28;20057;-56
2021/08/29 11:27:01;;;;;;;0.70;0.70;;;;;;;;;;4526296;28;20041;-56
2021/08/29 11:29:53;;;;;;;0.65;0.65;;;;;;;;;;4537732;28;20064;-56
2021/08/29 11:32:05;;;;;;;0.60;0.60;;;;;;;;;;4545445;28;20048;-56
2021/08/29 11:34:17;;;;;;;0.65;0.65;;;;;;;;;;4526765;28;20033;-56
2021/08/29 11:36:29;;;;;;;0.60;0.60;;;;;;;;;;4538716;28;20044;-57
2021/08/29 11:38:42;;;;;;;0.77;0.70;;;;;;;;;;4537537;28;20179;-57
2021/08/29 11:41:15;;;;;;;0.95;0.90;;;;;;;;;;4554255;28;20137;-57
2021/08/29 11:43:26;;;;;;;0.90;0.80;;;;;;;;;;4536664;28;20895;-57
2021/08/29 11:45:36;;;;;;;0.80;0.80;;;;;;;;;;4527863;28;20034;-57
2021/08/29 11:47:50;;;;;;;0.90;0.90;;;;;;;;;;4537283;28;20648;-57
2021/08/29 11:50:24;;;;;;;0.70;0.70;;;;;;;;;;4554138;28;20037;-59
2021/08/29 11:52:58;;;;;;;0.50;0.50;;;;;;;;;;4539351;28;20037;-58
2021/08/29 11:55:10;;;;;;;0.50;0.50;;;;;;;;;;4554148;28;20586;-58
2021/08/29 11:57:24;;;;;;;0.50;0.50;;;;;;;;;;4537219;28;20033;-58
2021/08/29 11:59:36;;;;;;;0.50;0.50;;;;;;;;;;4553224;28;20595;-59
2021/08/29 12:01:57;;;;;;;0.70;0.70;;;;;;;;;;4537190;28;20508;-59
2021/08/29 12:04:09;;;;;;;0.65;0.60;;;;;;;;;;4537520;28;20127;-58
2021/08/29 12:07:05;;;;;;;0.70;0.68;;;;;;;;;;4538904;28;20048;-56
2021/08/29 12:09:41;;;;;;;0.70;0.70;;;;;;;;;;4538953;28;20049;-57
2021/08/29 12:12:17;;;;;;;0.60;0.60;;;;;;;;;;4528882;28;20895;-58
2021/08/29 12:14:48;;;;;;;0.57;0.57;;;;;;;;;;4536999;28;20045;-57
2021/08/29 12:17:18;;;;;;;0.70;0.70;;;;;;;;;;4537780;28;20037;-58
2021/08/29 12:19:31;;;;;;;0.63;0.63;;;;;;;;;;4546246;28;20486;-58
2021/08/29 12:22:08;;;;;;;0.77;0.77;;;;;;;;;;4536969;28;21027;-57
2021/08/29 12:24:46;;;;;;;1.00;0.90;;;;;;;;;;4537300;28;20045;-57
2021/08/29 12:27:06;;;;;;;1.42;1.00;;;;;;;;;;4519137;28;20111;-57
2021/08/29 12:29:18;;;;;;;0.80;0.77;;;;;;;;;;4528186;28;20038;-57
2021/08/29 12:31:38;;;;;;;0.95;0.90;;;;;;;;;;4536266;28;20124;-57
2021/08/29 12:33:49;;;;;;;1.20;1.10;;;;;;;;;;4525954;28;20045;-57
2021/08/29 12:36:10;;;;;;;1.35;1.10;;;;;;;;;;4553842;28;20025;-58
2021/08/29 12:38:26;;;;;;;1.08;1.00;;;;;;;;;;4553778;28;20642;-57
2021/08/29 12:40:40;;;;;;;1.30;1.20;;;;;;;;;;4525583;28;20042;-58
2021/08/29 12:42:50;;;;;;;1.58;1.05;;;;;;;;;;4519915;28;20116;-57
2021/08/29 12:45:11;;;;;;;0.80;0.80;;;;;;;;;;4534329;28;20033;-58
2021/08/29 12:47:21;;;;;;;0.80;0.70;;;;;;;;;;4537928;28;20128;-58
2021/08/29 12:49:32;;;;;;;0.70;0.70;;;;;;;;;;4536698;28;20075;-57
2021/08/29 12:51:43;;;;;;;0.93;0.80;;;;;;;;;;4538213;28;20040;-57
2021/08/29 12:54:00;;;;;;;0.98;0.95;;;;;;;;;;4538297;28;20533;-57
2021/08/29 12:56:21;;;;;;;0.77;0.75;;;;;;;;;;4539512;28;20025;-57
2021/08/29 12:58:35;;;;;;;1.08;0.98;;;;;;;;;;4541606;28;20064;-58
2021/08/29 13:00:51;;;;;;;1.40;1.20;;;;;;;;;;4539844;28;20036;-58
2021/08/29 13:03:02;;;;;;;1.55;1.30;;;;;;;;;;4539382;28;20067;-57
2021/08/29 13:05:12;;;;;;;1.30;1.20;;;;;;;;;;4556225;28;20025;-57
2021/08/29 13:07:23;;;;;;;1.53;1.20;;;;;;;;;;4541416;28;20036;-57
2021/08/29 13:09:35;;;;;;;1.30;1.20;;;;;;;;;;4540733;28;20056;-57
2021/08/29 13:11:45;;;;;;;1.55;1.10;;;;;;;;;;4514200;28;20042;-57
2021/08/29 13:13:59;;;;;;;1.73;1.20;;;;;;;;;;4540775;28;20497;-57
2021/08/29 13:16:10;;;;;;;1.27;1.10;;;;;;;;;;4556308;28;20029;-57
2021/08/29 13:18:26;;;;;;;1.42;1.10;;;;;;;;;;4541075;28;20029;-57
2021/08/29 13:20:42;;;;;;;1.35;1.13;;;;;;;;;;4540590;28;20033;-57
2021/08/29 13:22:52;;;;;;;1.20;1.10;;;;;;;;;;4537906;28;20040;-57
2021/08/29 13:25:28;;;;;;;1.27;1.17;;;;;;;;;;4540834;28;20970;-57
2021/08/29 13:27:42;;;;;;;1.33;1.23;;;;;;;;;;4540794;28;20029;-57
2021/08/29 13:29:56;;;;;;;1.55;1.30;;;;;;;;;;4540682;28;20037;-57
2021/08/29 13:32:07;;;;;;;1.77;1.50;;;;;;;;;;4539034;28;20115;-57
2021/08/29 13:34:26;;;;;;;2.00;1.80;;;;;;;;;;4540680;28;20500;-57
2021/08/29 13:36:42;;;;;;;1.67;1.50;;;;;;;;;;4539146;28;20064;-57
2021/08/29 13:38:53;;;;;;;1.52;1.42;;;;;;;;;;4548452;28;20028;-57
2021/08/29 13:41:06;;;;;;;1.50;1.40;;;;;;;;;;4540111;28;20393;-57
2021/08/29 13:43:24;;;;;;;1.58;1.48;;;;;;;;;;4539173;28;20037;-57
2021/08/29 13:45:38;;;;;;;1.63;1.40;;;;;;;;;;4540791;28;20589;-57
2021/08/29 13:47:49;;;;;;;1.60;1.50;;;;;;;;;;4538965;28;20116;-57